sensor_id;sensor_type;location;lat;lon;timestamp;pressure;altitude;pressure_sealevel;temperature;humidity
6532;BME280;3299;42.004;24.868;2023-04-27T00:00:11;97693.22;;;12.71;67.51
6532;BME280;3299;42.004;24.868;2023-04-27T00:02:37;97595.94;;;12.18;67.79
6532;BME280;3299;42.004;24.868;2023-04-27T00:05:03;97693.50;;;12.68;67.77
6532;BME280;3299;42.004;24.868;2023-04-27T00:07:29;97615.03;;;12.17;67.80
6532;BME280;3299;42.004;24.868;2023-04-27T00:09:55;97651.94;;;12.39;67.59
6532;BME280;3299;42.004;24.868;2023-04-27T00:12:21;97636.63;;;12.17;67.87
6532;BME280;3299;42.004;24.868;2023-04-27T00:14:46;97701.13;;;12.60;68.03
6532;BME280;3299;42.004;24.868;2023-04-27T00:17:11;97690.22;;;12.56;67.83
6532;BME280;3299;42.004;24.868;2023-04-27T00:19:37;97643.44;;;12.28;67.60
6532;BME280;3299;42.004;24.868;2023-04-27T00:22:03;97631.56;;;12.16;67.58
6532;BME280;3299;42.004;24.868;2023-04-27T00:24:30;97691.56;;;12.51;67.43
6532;BME280;3299;42.004;24.868;2023-04-27T00:26:55;97721.06;;;12.59;67.94
6532;BME280;3299;42.004;24.868;2023-04-27T00:29:21;97710.69;;;12.50;67.90
6532;BME280;3299;42.004;24.868;2023-04-27T00:31:47;97654.91;;;12.16;68.71
6532;BME280;3299;42.004;24.868;2023-04-27T00:34:12;97700.00;;;12.43;68.78
6532;BME280;3299;42.004;24.868;2023-04-27T00:36:37;97668.81;;;12.15;70.52
6532;BME280;3299;42.004;24.868;2023-04-27T00:39:03;97735.66;;;12.51;72.66
6532;BME280;3299;42.004;24.868;2023-04-27T00:41:30;97738.38;;;12.40;72.74
6532;BME280;3299;42.004;24.868;2023-04-27T00:43:57;97673.69;;;11.99;72.99
6532;BME280;3299;42.004;24.868;2023-04-27T00:46:23;97747.25;;;12.47;71.37
6532;BME280;3299;42.004;24.868;2023-04-27T00:48:48;97742.38;;;12.53;71.52
6532;BME280;3299;42.004;24.868;2023-04-27T00:51:14;97675.59;;;11.97;72.22
6532;BME280;3299;42.004;24.868;2023-04-27T00:53:40;97708.91;;;12.11;73.49
6532;BME280;3299;42.004;24.868;2023-04-27T00:56:06;97785.50;;;12.45;72.93
6532;BME280;3299;42.004;24.868;2023-04-27T00:58:32;97720.09;;;12.02;72.87
6532;BME280;3299;42.004;24.868;2023-04-27T01:00:58;97695.97;;;11.81;75.68
6532;BME280;3299;42.004;24.868;2023-04-27T01:03:24;97757.00;;;12.15;76.62
6532;BME280;3299;42.004;24.868;2023-04-27T01:05:50;97740.31;;;12.08;78.66
6532;BME280;3299;42.004;24.868;2023-04-27T01:08:15;97740.56;;;12.05;79.43
6532;BME280;3299;42.004;24.868;2023-04-27T01:10:41;97698.97;;;11.76;83.84
6532;BME280;3299;42.004;24.868;2023-04-27T01:13:06;97750.78;;;11.97;81.02
6532;BME280;3299;42.004;24.868;2023-04-27T01:15:32;97726.31;;;11.90;81.71
6532;BME280;3299;42.004;24.868;2023-04-27T01:17:58;97730.34;;;11.83;82.28
6532;BME280;3299;42.004;24.868;2023-04-27T01:20:24;97706.75;;;11.76;80.41
6532;BME280;3299;42.004;24.868;2023-04-27T01:22:50;97722.19;;;11.78;79.21
6532;BME280;3299;42.004;24.868;2023-04-27T01:25:15;97750.06;;;11.95;79.83
6532;BME280;3299;42.004;24.868;2023-04-27T01:27:41;97731.84;;;11.76;83.14
6532;BME280;3299;42.004;24.868;2023-04-27T01:30:06;97751.69;;;11.86;81.35
6532;BME280;3299;42.004;24.868;2023-04-27T01:32:32;97754.53;;;11.83;81.68
6532;BME280;3299;42.004;24.868;2023-04-27T01:34:57;97710.91;;;11.47;82.91
6532;BME280;3299;42.004;24.868;2023-04-27T01:37:23;97715.03;;;11.50;80.32
6532;BME280;3299;42.004;24.868;2023-04-27T01:39:48;97783.59;;;11.87;79.28
6532;BME280;3299;42.004;24.868;2023-04-27T01:42:14;97743.34;;;11.62;79.33
6532;BME280;3299;42.004;24.868;2023-04-27T01:44:39;97723.56;;;11.41;78.47
6532;BME280;3299;42.004;24.868;2023-04-27T01:47:05;97732.28;;;11.40;80.38
6532;BME280;3299;42.004;24.868;2023-04-27T01:49:30;97765.88;;;11.51;81.77
6532;BME280;3299;42.004;24.868;2023-04-27T01:51:55;97756.47;;;11.50;79.37
6532;BME280;3299;42.004;24.868;2023-04-27T01:54:21;97733.91;;;11.41;76.20
6532;BME280;3299;42.004;24.868;2023-04-27T01:56:46;97790.63;;;11.75;76.19
6532;BME280;3299;42.004;24.868;2023-04-27T01:59:12;97794.66;;;11.89;79.20
6532;BME280;3299;42.004;24.868;2023-04-27T02:01:37;97734.06;;;11.60;73.92
6532;BME280;3299;42.004;24.868;2023-04-27T02:04:02;97815.75;;;12.05;75.62
6532;BME280;3299;42.004;24.868;2023-04-27T02:06:28;97731.75;;;11.46;77.37
6532;BME280;3299;42.004;24.868;2023-04-27T02:08:53;97764.91;;;11.63;74.20
6532;BME280;3299;42.004;24.868;2023-04-27T02:11:19;97785.31;;;11.77;73.45
6532;BME280;3299;42.004;24.868;2023-04-27T02:13:44;97811.59;;;11.93;75.32
6532;BME280;3299;42.004;24.868;2023-04-27T02:16:09;97779.19;;;11.78;74.84
6532;BME280;3299;42.004;24.868;2023-04-27T02:18:35;97800.63;;;11.80;72.72
6532;BME280;3299;42.004;24.868;2023-04-27T02:21:00;97822.16;;;12.01;70.78
6532;BME280;3299;42.004;24.868;2023-04-27T02:23:26;97738.59;;;11.47;72.46
6532;BME280;3299;42.004;24.868;2023-04-27T02:25:51;97832.34;;;11.93;71.71
6532;BME280;3299;42.004;24.868;2023-04-27T02:28:16;97763.75;;;11.56;70.92
6532;BME280;3299;42.004;24.868;2023-04-27T02:30:42;97788.09;;;11.64;74.77
6532;BME280;3299;42.004;24.868;2023-04-27T02:33:07;97823.47;;;11.95;71.59
6532;BME280;3299;42.004;24.868;2023-04-27T02:35:33;97794.47;;;11.81;71.50
6532;BME280;3299;42.004;24.868;2023-04-27T02:37:58;97837.44;;;12.04;72.41
6532;BME280;3299;42.004;24.868;2023-04-27T02:40:24;97759.16;;;11.59;70.39
6532;BME280;3299;42.004;24.868;2023-04-27T02:42:49;97744.09;;;11.53;68.80
6532;BME280;3299;42.004;24.868;2023-04-27T02:45:15;97837.22;;;12.07;70.23
6532;BME280;3299;42.004;24.868;2023-04-27T02:47:41;97836.09;;;12.09;68.70
6532;BME280;3299;42.004;24.868;2023-04-27T02:50:06;97808.13;;;11.83;69.98
6532;BME280;3299;42.004;24.868;2023-04-27T02:52:32;97797.69;;;11.73;69.13
6532;BME280;3299;42.004;24.868;2023-04-27T02:54:57;97770.94;;;11.52;68.30
6532;BME280;3299;42.004;24.868;2023-04-27T02:57:23;97834.41;;;11.99;66.46
6532;BME280;3299;42.004;24.868;2023-04-27T02:59:48;97765.38;;;11.57;70.47
6532;BME280;3299;42.004;24.868;2023-04-27T03:02:14;97854.19;;;12.00;69.54
6532;BME280;3299;42.004;24.868;2023-04-27T03:04:39;97770.81;;;11.54;66.23
6532;BME280;3299;42.004;24.868;2023-04-27T03:07:05;97864.78;;;12.08;66.36
6532;BME280;3299;42.004;24.868;2023-04-27T03:09:30;97867.22;;;12.09;65.04
6532;BME280;3299;42.004;24.868;2023-04-27T03:11:56;97772.47;;;11.55;65.46
6532;BME280;3299;42.004;24.868;2023-04-27T03:14:21;97815.59;;;11.76;64.83
6532;BME280;3299;42.004;24.868;2023-04-27T03:16:47;97866.75;;;12.15;64.05
6532;BME280;3299;42.004;24.868;2023-04-27T03:19:12;97828.50;;;11.87;65.75
6532;BME280;3299;42.004;24.868;2023-04-27T03:21:38;97799.34;;;11.74;66.06
6532;BME280;3299;42.004;24.868;2023-04-27T03:24:04;97867.03;;;12.22;64.84
6532;BME280;3299;42.004;24.868;2023-04-27T03:26:29;97824.31;;;11.96;63.39
6532;BME280;3299;42.004;24.868;2023-04-27T03:28:55;97816.09;;;11.91;63.84
6532;BME280;3299;42.004;24.868;2023-04-27T03:31:20;97881.00;;;12.30;63.14
6532;BME280;3299;42.004;24.868;2023-04-27T03:33:45;97824.31;;;11.96;62.04
6532;BME280;3299;42.004;24.868;2023-04-27T03:36:11;97825.00;;;11.98;61.45
6532;BME280;3299;42.004;24.868;2023-04-27T03:38:37;97852.19;;;12.03;62.65
6532;BME280;3299;42.004;24.868;2023-04-27T03:41:02;97874.81;;;12.22;61.51
6532;BME280;3299;42.004;24.868;2023-04-27T03:43:27;97846.69;;;11.97;61.68
6532;BME280;3299;42.004;24.868;2023-04-27T03:45:53;97792.06;;;11.68;62.93
6532;BME280;3299;42.004;24.868;2023-04-27T03:48:19;97886.53;;;12.16;61.66
6532;BME280;3299;42.004;24.868;2023-04-27T03:50:45;97833.81;;;11.86;62.51
6532;BME280;3299;42.004;24.868;2023-04-27T03:53:11;97894.81;;;12.10;63.92
6532;BME280;3299;42.004;24.868;2023-04-27T03:55:40;97848.50;;;11.85;63.33
6532;BME280;3299;42.004;24.868;2023-04-27T03:58:06;97813.63;;;11.69;62.71
6532;BME280;3299;42.004;24.868;2023-04-27T04:00:33;97814.81;;;11.65;64.00
6532;BME280;3299;42.004;24.868;2023-04-27T04:02:58;97875.41;;;12.05;62.41
6532;BME280;3299;42.004;24.868;2023-04-27T04:05:24;97893.81;;;12.22;61.41
6532;BME280;3299;42.004;24.868;2023-04-27T04:07:49;97901.88;;;12.29;61.29
6532;BME280;3299;42.004;24.868;2023-04-27T04:10:15;97866.94;;;12.03;62.53
6532;BME280;3299;42.004;24.868;2023-04-27T04:12:40;97893.16;;;12.09;65.46
6532;BME280;3299;42.004;24.868;2023-04-27T04:15:06;97905.25;;;12.20;61.21
6532;BME280;3299;42.004;24.868;2023-04-27T04:17:35;97909.50;;;12.21;61.61
6532;BME280;3299;42.004;24.868;2023-04-27T04:20:00;97918.66;;;12.25;62.87
6532;BME280;3299;42.004;24.868;2023-04-27T04:22:26;97914.59;;;12.32;62.76
6532;BME280;3299;42.004;24.868;2023-04-27T04:24:51;97877.69;;;12.19;64.57
6532;BME280;3299;42.004;24.868;2023-04-27T04:27:18;97916.88;;;12.46;61.02
6532;BME280;3299;42.004;24.868;2023-04-27T04:29:43;97867.38;;;12.08;59.64
6532;BME280;3299;42.004;24.868;2023-04-27T04:32:08;97921.09;;;12.47;59.98
6532;BME280;3299;42.004;24.868;2023-04-27T04:34:37;97907.50;;;12.34;60.59
6532;BME280;3299;42.004;24.868;2023-04-27T04:37:03;97871.34;;;12.12;59.23
6532;BME280;3299;42.004;24.868;2023-04-27T04:39:31;97838.88;;;11.87;59.17
6532;BME280;3299;42.004;24.868;2023-04-27T04:41:57;97876.78;;;12.09;59.53
6532;BME280;3299;42.004;24.868;2023-04-27T04:44:23;97852.78;;;11.86;59.60
6532;BME280;3299;42.004;24.868;2023-04-27T04:46:48;97881.97;;;12.09;60.29
6532;BME280;3299;42.004;24.868;2023-04-27T04:49:14;97878.25;;;12.02;60.27
6532;BME280;3299;42.004;24.868;2023-04-27T04:51:43;97879.84;;;12.14;60.04
6532;BME280;3299;42.004;24.868;2023-04-27T04:54:09;97893.41;;;12.27;62.29
6532;BME280;3299;42.004;24.868;2023-04-27T04:56:35;97919.47;;;12.46;59.94
6532;BME280;3299;42.004;24.868;2023-04-27T04:59:01;97865.84;;;12.05;59.42
6532;BME280;3299;42.004;24.868;2023-04-27T05:01:26;97903.09;;;12.25;59.18
6532;BME280;3299;42.004;24.868;2023-04-27T05:03:52;97867.38;;;12.08;59.17
6532;BME280;3299;42.004;24.868;2023-04-27T05:06:17;97914.66;;;12.41;58.53
6532;BME280;3299;42.004;24.868;2023-04-27T05:08:42;97870.22;;;12.05;59.09
6532;BME280;3299;42.004;24.868;2023-04-27T05:11:08;97888.25;;;12.06;59.17
6532;BME280;3299;42.004;24.868;2023-04-27T05:13:33;97945.22;;;12.38;59.46
6532;BME280;3299;42.004;24.868;2023-04-27T05:16:03;97925.66;;;12.34;58.38
6532;BME280;3299;42.004;24.868;2023-04-27T05:18:29;97937.44;;;12.38;59.07
6532;BME280;3299;42.004;24.868;2023-04-27T05:20:54;97950.72;;;12.44;60.46
6532;BME280;3299;42.004;24.868;2023-04-27T05:23:20;97876.34;;;12.04;58.92
6532;BME280;3299;42.004;24.868;2023-04-27T05:25:45;97928.72;;;12.39;58.42
6532;BME280;3299;42.004;24.868;2023-04-27T05:28:11;97888.06;;;12.19;59.29
6532;BME280;3299;42.004;24.868;2023-04-27T05:30:36;97894.16;;;12.18;59.88
6532;BME280;3299;42.004;24.868;2023-04-27T05:33:02;97991.03;;;12.69;57.94
6532;BME280;3299;42.004;24.868;2023-04-27T05:35:29;97966.94;;;12.57;59.82
6532;BME280;3299;42.004;24.868;2023-04-27T05:37:55;97908.59;;;12.11;58.30
6532;BME280;3299;42.004;24.868;2023-04-27T05:40:20;97943.53;;;12.27;56.51
6532;BME280;3299;42.004;24.868;2023-04-27T05:42:46;97945.03;;;12.30;57.99
6532;BME280;3299;42.004;24.868;2023-04-27T05:45:12;97972.44;;;12.43;57.94
6532;BME280;3299;42.004;24.868;2023-04-27T05:47:37;97964.06;;;12.40;58.40
6532;BME280;3299;42.004;24.868;2023-04-27T05:50:03;97928.22;;;12.24;58.05
6532;BME280;3299;42.004;24.868;2023-04-27T05:52:28;97952.63;;;12.42;58.37
6532;BME280;3299;42.004;24.868;2023-04-27T05:54:56;97951.22;;;12.38;57.92
6532;BME280;3299;42.004;24.868;2023-04-27T05:57:23;97974.72;;;12.57;56.60
6532;BME280;3299;42.004;24.868;2023-04-27T05:59:48;97902.66;;;12.20;56.17
6532;BME280;3299;42.004;24.868;2023-04-27T06:02:13;97987.06;;;12.65;56.00
6532;BME280;3299;42.004;24.868;2023-04-27T06:04:39;97920.50;;;12.13;56.45
6532;BME280;3299;42.004;24.868;2023-04-27T06:07:08;97987.38;;;12.51;57.22
6532;BME280;3299;42.004;24.868;2023-04-27T06:09:34;97961.75;;;12.37;56.51
6532;BME280;3299;42.004;24.868;2023-04-27T06:12:00;97918.97;;;12.11;57.32
6532;BME280;3299;42.004;24.868;2023-04-27T06:14:27;97999.44;;;12.61;56.37
6532;BME280;3299;42.004;24.868;2023-04-27T06:16:52;97965.31;;;12.36;56.68
6532;BME280;3299;42.004;24.868;2023-04-27T06:19:17;97970.66;;;12.44;57.75
6532;BME280;3299;42.004;24.868;2023-04-27T06:21:43;97964.63;;;12.43;56.89
6532;BME280;3299;42.004;24.868;2023-04-27T06:24:08;97962.75;;;12.45;56.18
6532;BME280;3299;42.004;24.868;2023-04-27T06:26:34;97922.34;;;12.22;54.85
6532;BME280;3299;42.004;24.868;2023-04-27T06:28:59;98014.25;;;12.70;55.86
6532;BME280;3299;42.004;24.868;2023-04-27T06:31:25;97949.28;;;12.31;55.98
6532;BME280;3299;42.004;24.868;2023-04-27T06:33:51;97965.31;;;12.36;56.83
6532;BME280;3299;42.004;24.868;2023-04-27T06:36:16;98010.41;;;12.65;54.56
6532;BME280;3299;42.004;24.868;2023-04-27T06:38:42;97924.09;;;12.22;55.98
6532;BME280;3299;42.004;24.868;2023-04-27T06:41:07;98021.97;;;12.81;55.78
6532;BME280;3299;42.004;24.868;2023-04-27T06:43:32;97959.78;;;12.50;56.18
6532;BME280;3299;42.004;24.868;2023-04-27T06:45:58;97981.53;;;12.79;55.11
6532;BME280;3299;42.004;24.868;2023-04-27T06:48:23;97933.03;;;12.59;55.24
6532;BME280;3299;42.004;24.868;2023-04-27T06:50:48;97956.13;;;12.82;56.06
6532;BME280;3299;42.004;24.868;2023-04-27T06:53:14;98020.84;;;13.25;54.32
6532;BME280;3299;42.004;24.868;2023-04-27T06:55:41;98038.13;;;13.35;54.48
6532;BME280;3299;42.004;24.868;2023-04-27T06:58:07;97999.66;;;13.29;53.43
6532;BME280;3299;42.004;24.868;2023-04-27T07:00:32;98016.81;;;13.41;53.48
6532;BME280;3299;42.004;24.868;2023-04-27T07:02:58;98019.41;;;13.41;53.00
6532;BME280;3299;42.004;24.868;2023-04-27T07:05:23;97959.13;;;13.08;52.86
6532;BME280;3299;42.004;24.868;2023-04-27T07:07:48;97950.25;;;13.10;52.88
6532;BME280;3299;42.004;24.868;2023-04-27T07:10:14;97994.94;;;13.53;52.09
6532;BME280;3299;42.004;24.868;2023-04-27T07:12:41;97966.88;;;13.38;52.63
6532;BME280;3299;42.004;24.868;2023-04-27T07:15:07;97991.16;;;13.57;52.72
6532;BME280;3299;42.004;24.868;2023-04-27T07:17:32;97953.34;;;13.34;53.42
6532;BME280;3299;42.004;24.868;2023-04-27T07:19:58;97979.09;;;13.56;52.65
6532;BME280;3299;42.004;24.868;2023-04-27T07:22:25;98015.22;;;13.69;52.19
6532;BME280;3299;42.004;24.868;2023-04-27T07:24:50;97996.88;;;13.61;51.13
6532;BME280;3299;42.004;24.868;2023-04-27T07:27:16;98022.66;;;13.73;51.84
6532;BME280;3299;42.004;24.868;2023-04-27T07:29:41;97995.50;;;13.57;51.97
6532;BME280;3299;42.004;24.868;2023-04-27T07:32:07;98046.50;;;13.88;51.97
6532;BME280;3299;42.004;24.868;2023-04-27T07:34:33;98031.56;;;13.90;51.60
6532;BME280;3299;42.004;24.868;2023-04-27T07:36:59;98034.03;;;13.82;50.32
6532;BME280;3299;42.004;24.868;2023-04-27T07:39:26;97998.97;;;13.67;50.80
6532;BME280;3299;42.004;24.868;2023-04-27T07:41:52;98051.16;;;13.94;51.73
6532;BME280;3299;42.004;24.868;2023-04-27T07:44:18;98052.50;;;13.98;51.31
6532;BME280;3299;42.004;24.868;2023-04-27T07:46:44;97994.72;;;13.66;51.25
6532;BME280;3299;42.004;24.868;2023-04-27T07:49:11;98001.84;;;13.64;51.30
6532;BME280;3299;42.004;24.868;2023-04-27T07:51:38;97958.53;;;13.44;50.19
6532;BME280;3299;42.004;24.868;2023-04-27T07:54:04;97983.78;;;13.62;51.52
6532;BME280;3299;42.004;24.868;2023-04-27T07:56:29;98006.50;;;13.79;50.41
6532;BME280;3299;42.004;24.868;2023-04-27T07:58:55;98015.00;;;13.81;50.36
6532;BME280;3299;42.004;24.868;2023-04-27T08:01:20;97988.13;;;13.52;51.24
6532;BME280;3299;42.004;24.868;2023-04-27T08:03:46;98021.28;;;13.79;51.77
6532;BME280;3299;42.004;24.868;2023-04-27T08:06:11;98045.97;;;14.03;51.68
6532;BME280;3299;42.004;24.868;2023-04-27T08:08:37;98039.38;;;14.09;51.61
6532;BME280;3299;42.004;24.868;2023-04-27T08:11:02;98010.09;;;14.07;51.83
6532;BME280;3299;42.004;24.868;2023-04-27T08:13:28;97967.94;;;13.84;50.04
6532;BME280;3299;42.004;24.868;2023-04-27T08:15:53;98043.56;;;14.40;50.82
6532;BME280;3299;42.004;24.868;2023-04-27T08:18:23;98040.00;;;14.41;49.07
6532;BME280;3299;42.004;24.868;2023-04-27T08:20:48;97961.63;;;13.96;49.89
6532;BME280;3299;42.004;24.868;2023-04-27T08:23:14;98043.81;;;14.46;49.55
6532;BME280;3299;42.004;24.868;2023-04-27T08:25:39;98010.13;;;14.26;49.11
6532;BME280;3299;42.004;24.868;2023-04-27T08:28:05;97960.81;;;13.86;48.68
6532;BME280;3299;42.004;24.868;2023-04-27T08:30:30;98018.88;;;14.34;48.97
6532;BME280;3299;42.004;24.868;2023-04-27T08:32:56;98028.75;;;14.40;49.87
6532;BME280;3299;42.004;24.868;2023-04-27T08:35:21;98008.22;;;14.37;50.98
6532;BME280;3299;42.004;24.868;2023-04-27T08:37:47;97962.72;;;14.13;49.64
6532;BME280;3299;42.004;24.868;2023-04-27T08:40:12;97988.19;;;14.38;49.82
6532;BME280;3299;42.004;24.868;2023-04-27T08:42:39;98011.44;;;14.68;50.05
6532;BME280;3299;42.004;24.868;2023-04-27T08:45:06;97984.72;;;14.66;50.18
6532;BME280;3299;42.004;24.868;2023-04-27T08:47:33;97947.06;;;14.51;49.14
6532;BME280;3299;42.004;24.868;2023-04-27T08:49:58;98004.13;;;15.00;48.73
6532;BME280;3299;42.004;24.868;2023-04-27T08:52:23;97989.19;;;14.92;47.22
6532;BME280;3299;42.004;24.868;2023-04-27T08:54:49;97980.94;;;14.97;48.26
6532;BME280;3299;42.004;24.868;2023-04-27T08:57:14;97942.78;;;14.78;48.29
6532;BME280;3299;42.004;24.868;2023-04-27T08:59:41;97962.44;;;15.00;49.09
6532;BME280;3299;42.004;24.868;2023-04-27T09:02:20;97938.97;;;15.00;47.77
6532;BME280;3299;42.004;24.868;2023-04-27T09:04:46;97972.88;;;15.27;47.34
6532;BME280;3299;42.004;24.868;2023-04-27T09:07:16;98004.41;;;15.60;47.52
6532;BME280;3299;42.004;24.868;2023-04-27T09:09:42;97999.94;;;15.53;47.10
6532;BME280;3299;42.004;24.868;2023-04-27T09:12:17;97930.91;;;15.20;48.66
6532;BME280;3299;42.004;24.868;2023-04-27T09:14:54;97997.94;;;15.64;48.00
6532;BME280;3299;42.004;24.868;2023-04-27T09:17:24;97998.41;;;15.77;47.18
6532;BME280;3299;42.004;24.868;2023-04-27T09:19:50;97987.25;;;15.85;47.22
6532;BME280;3299;42.004;24.868;2023-04-27T09:22:15;97922.81;;;15.33;47.08
6532;BME280;3299;42.004;24.868;2023-04-27T09:24:51;97963.81;;;15.75;46.03
6532;BME280;3299;42.004;24.868;2023-04-27T09:27:20;97960.25;;;15.76;47.14
6532;BME280;3299;42.004;24.868;2023-04-27T09:29:46;97911.50;;;15.59;47.17
6532;BME280;3299;42.004;24.868;2023-04-27T09:32:18;97918.66;;;15.75;44.38
6532;BME280;3299;42.004;24.868;2023-04-27T09:34:45;97987.91;;;16.22;44.96
6532;BME280;3299;42.004;24.868;2023-04-27T09:37:11;97984.94;;;16.17;44.35
6532;BME280;3299;42.004;24.868;2023-04-27T09:39:37;97912.03;;;15.80;44.90
6532;BME280;3299;42.004;24.868;2023-04-27T09:42:03;97993.94;;;16.22;43.06
6532;BME280;3299;42.004;24.868;2023-04-27T09:44:29;97978.09;;;16.16;44.08
6532;BME280;3299;42.004;24.868;2023-04-27T09:46:57;97981.72;;;16.23;44.54
6532;BME280;3299;42.004;24.868;2023-04-27T09:49:25;97905.41;;;15.86;42.56
6532;BME280;3299;42.004;24.868;2023-04-27T09:51:50;97931.56;;;15.94;43.26
6532;BME280;3299;42.004;24.868;2023-04-27T09:54:19;97972.78;;;16.25;43.21
6532;BME280;3299;42.004;24.868;2023-04-27T09:57:03;97981.94;;;16.47;44.01
6532;BME280;3299;42.004;24.868;2023-04-27T09:59:44;97986.19;;;16.48;42.63
6532;BME280;3299;42.004;24.868;2023-04-27T10:02:15;97949.19;;;16.35;43.85
6532;BME280;3299;42.004;24.868;2023-04-27T10:07:18;97895.97;;;16.10;43.84
6532;BME280;3299;42.004;24.868;2023-04-27T10:09:46;97977.69;;;16.63;44.25
6532;BME280;3299;42.004;24.868;2023-04-27T10:12:26;97910.63;;;16.29;44.84
6532;BME280;3299;42.004;24.868;2023-04-27T10:14:55;97973.78;;;16.67;43.83
6532;BME280;3299;42.004;24.868;2023-04-27T10:17:29;97935.25;;;16.44;43.76
6532;BME280;3299;42.004;24.868;2023-04-27T10:19:58;97950.00;;;16.53;43.91
6532;BME280;3299;42.004;24.868;2023-04-27T10:22:36;97904.38;;;16.22;44.52
6532;BME280;3299;42.004;24.868;2023-04-27T10:25:14;97976.25;;;16.69;44.42
6532;BME280;3299;42.004;24.868;2023-04-27T10:27:41;97978.38;;;16.73;43.67
6532;BME280;3299;42.004;24.868;2023-04-27T10:30:10;97905.19;;;16.22;42.95
6532;BME280;3299;42.004;24.868;2023-04-27T10:32:36;97938.81;;;16.43;42.80
6532;BME280;3299;42.004;24.868;2023-04-27T10:35:07;97983.22;;;16.86;43.42
6532;BME280;3299;42.004;24.868;2023-04-27T10:37:39;97906.47;;;16.61;42.75
6532;BME280;3299;42.004;24.868;2023-04-27T10:40:07;97976.16;;;17.12;42.59
6532;BME280;3299;42.004;24.868;2023-04-27T10:42:34;97910.66;;;16.80;41.12
6532;BME280;3299;42.004;24.868;2023-04-27T10:45:00;97979.59;;;17.12;40.26
6532;BME280;3299;42.004;24.868;2023-04-27T10:47:44;97968.88;;;16.90;40.69
6532;BME280;3299;42.004;24.868;2023-04-27T10:50:11;97923.97;;;16.43;40.49
6532;BME280;3299;42.004;24.868;2023-04-27T10:52:43;97987.44;;;16.87;41.60
6532;BME280;3299;42.004;24.868;2023-04-27T10:57:57;97945.16;;;16.91;43.06
6532;BME280;3299;42.004;24.868;2023-04-27T11:00:27;97998.91;;;17.53;40.57
6532;BME280;3299;42.004;24.868;2023-04-27T11:02:54;97986.50;;;17.55;40.06
6532;BME280;3299;42.004;24.868;2023-04-27T11:05:22;97938.88;;;17.43;40.04
6532;BME280;3299;42.004;24.868;2023-04-27T11:07:50;98009.16;;;17.80;40.05
6532;BME280;3299;42.004;24.868;2023-04-27T11:10:18;97955.56;;;17.42;39.63
6532;BME280;3299;42.004;24.868;2023-04-27T11:12:45;97993.81;;;17.43;39.75
6532;BME280;3299;42.004;24.868;2023-04-27T11:15:11;98008.06;;;17.49;40.98
6532;BME280;3299;42.004;24.868;2023-04-27T11:17:38;97990.31;;;17.35;41.54
6532;BME280;3299;42.004;24.868;2023-04-27T11:20:04;97935.81;;;17.14;40.77
6532;BME280;3299;42.004;24.868;2023-04-27T11:22:33;97958.91;;;17.27;39.56
6532;BME280;3299;42.004;24.868;2023-04-27T11:24:59;97925.72;;;16.86;39.90
6532;BME280;3299;42.004;24.868;2023-04-27T11:27:35;98010.03;;;17.21;41.45
6532;BME280;3299;42.004;24.868;2023-04-27T11:30:01;97942.22;;;16.61;40.72
6532;BME280;3299;42.004;24.868;2023-04-27T11:32:27;98019.56;;;17.05;41.49
6532;BME280;3299;42.004;24.868;2023-04-27T11:34:53;97963.38;;;16.50;40.94
6532;BME280;3299;42.004;24.868;2023-04-27T11:37:23;97934.88;;;16.21;41.57
6532;BME280;3299;42.004;24.868;2023-04-27T11:39:49;98025.41;;;16.73;41.34
6532;BME280;3299;42.004;24.868;2023-04-27T11:42:22;97959.41;;;16.46;41.69
6532;BME280;3299;42.004;24.868;2023-04-27T11:45:02;98004.50;;;16.73;41.33
6532;BME280;3299;42.004;24.868;2023-04-27T11:47:31;98008.59;;;16.76;40.84
6532;BME280;3299;42.004;24.868;2023-04-27T11:50:02;97933.31;;;16.46;40.97
6532;BME280;3299;42.004;24.868;2023-04-27T11:52:33;97934.41;;;16.61;41.02
6532;BME280;3299;42.004;24.868;2023-04-27T11:55:01;98011.84;;;17.21;41.44
6532;BME280;3299;42.004;24.868;2023-04-27T11:57:31;98020.66;;;17.45;41.17
6532;BME280;3299;42.004;24.868;2023-04-27T11:59:58;98006.94;;;17.51;40.74
6532;BME280;3299;42.004;24.868;2023-04-27T12:02:25;97951.69;;;17.21;39.58
6532;BME280;3299;42.004;24.868;2023-04-27T12:04:51;97964.00;;;17.36;38.75
6532;BME280;3299;42.004;24.868;2023-04-27T12:07:17;98026.41;;;17.57;38.95
6532;BME280;3299;42.004;24.868;2023-04-27T12:09:42;98010.41;;;17.60;38.97
6532;BME280;3299;42.004;24.868;2023-04-27T12:12:09;97968.16;;;17.47;39.89
6532;BME280;3299;42.004;24.868;2023-04-27T12:14:35;98004.25;;;17.77;39.92
6532;BME280;3299;42.004;24.868;2023-04-27T12:17:01;97970.97;;;17.61;39.40
6532;BME280;3299;42.004;24.868;2023-04-27T12:19:26;98006.09;;;17.92;37.82
6532;BME280;3299;42.004;24.868;2023-04-27T12:21:52;98008.41;;;18.03;38.56
6532;BME280;3299;42.004;24.868;2023-04-27T12:24:18;97983.81;;;17.88;37.38
6532;BME280;3299;42.004;24.868;2023-04-27T12:26:43;98018.88;;;18.03;37.32
6532;BME280;3299;42.004;24.868;2023-04-27T12:29:09;98006.88;;;17.93;37.53
6532;BME280;3299;42.004;24.868;2023-04-27T12:31:35;98011.47;;;17.99;37.42
6532;BME280;3299;42.004;24.868;2023-04-27T12:34:00;97972.22;;;17.91;37.69
6532;BME280;3299;42.004;24.868;2023-04-27T12:36:26;98026.25;;;18.16;36.90
6532;BME280;3299;42.004;24.868;2023-04-27T12:38:56;97989.72;;;17.98;36.74
6532;BME280;3299;42.004;24.868;2023-04-27T12:41:21;97977.47;;;18.07;37.81
6532;BME280;3299;42.004;24.868;2023-04-27T12:43:47;97928.19;;;17.86;37.86
6532;BME280;3299;42.004;24.868;2023-04-27T12:46:13;97945.34;;;17.81;36.34
6532;BME280;3299;42.004;24.868;2023-04-27T12:48:38;98009.22;;;18.12;37.22
6532;BME280;3299;42.004;24.868;2023-04-27T12:51:04;97998.41;;;18.07;38.93
6532;BME280;3299;42.004;24.868;2023-04-27T12:53:30;97981.06;;;18.14;38.96
6532;BME280;3299;42.004;24.868;2023-04-27T12:55:56;97947.72;;;18.32;37.05
6532;BME280;3299;42.004;24.868;2023-04-27T12:58:24;97963.38;;;18.80;37.05
6532;BME280;3299;42.004;24.868;2023-04-27T13:00:50;98006.06;;;19.20;36.26
6532;BME280;3299;42.004;24.868;2023-04-27T13:03:15;98006.03;;;19.36;35.23
6532;BME280;3299;42.004;24.868;2023-04-27T13:05:42;98003.88;;;19.48;34.54
6532;BME280;3299;42.004;24.868;2023-04-27T13:08:08;97961.00;;;19.25;34.31
6532;BME280;3299;42.004;24.868;2023-04-27T13:10:34;97968.56;;;19.12;35.41